createdAt,value
2023-07-30T00:00:14.168Z,89.33
2023-07-30T00:03:26.116Z,89.25
2023-07-30T00:06:18.880Z,89.78
2023-07-30T00:09:12.098Z,89.81
2023-07-30T00:11:58.113Z,89.55
2023-07-30T00:14:50.946Z,89.37
2023-07-30T00:17:40.706Z,89.45
2023-07-30T00:20:33.609Z,89.84
2023-07-30T00:23:16.328Z,89.57
2023-07-30T00:26:01.766Z,89.80
2023-07-30T00:28:56.354Z,89.77
2023-07-30T00:31:49.051Z,89.83
2023-07-30T00:34:42.985Z,89.91
2023-07-30T00:37:35.997Z,90.11
2023-07-30T00:40:11.272Z,90.07
2023-07-30T00:43:03.997Z,90.18
2023-07-30T00:45:50.884Z,90.12
2023-07-30T00:48:44.544Z,90.04
2023-07-30T00:51:29.047Z,90.46
2023-07-30T00:54:22.176Z,90.24
2023-07-30T00:57:15.658Z,90.36
2023-07-30T01:00:11.616Z,90.54
2023-07-30T01:03:05.474Z,90.43
2023-07-30T01:06:00.277Z,90.67
2023-07-30T01:08:54.662Z,90.72
2023-07-30T01:11:38.296Z,90.47
2023-07-30T01:14:27.321Z,90.62
2023-07-30T01:17:20.752Z,90.67
2023-07-30T01:20:05.890Z,90.64
2023-07-30T01:22:58.905Z,90.89
2023-07-30T01:25:42.030Z,90.97
2023-07-30T01:28:39.510Z,90.89
2023-07-30T01:31:35.752Z,90.93
2023-07-30T01:34:30.857Z,91.17
2023-07-30T01:37:25.189Z,91.18
2023-07-30T01:40:19.192Z,91.35
2023-07-30T01:43:04.689Z,91.67
2023-07-30T01:45:57.789Z,91.70
2023-07-30T01:48:54.368Z,91.98
2023-07-30T01:51:47.508Z,92.17
2023-07-30T01:54:41.449Z,92.32
2023-07-30T01:57:34.233Z,92.55
2023-07-30T02:00:18.375Z,92.71
2023-07-30T02:03:10.950Z,93.08
2023-07-30T02:06:04.472Z,93.28
2023-07-30T02:08:48.071Z,93.70
2023-07-30T02:11:33.748Z,94.13
2023-07-30T02:14:16.040Z,94.26
2023-07-30T02:17:09.406Z,94.57
2023-07-30T02:20:04.165Z,94.89
2023-07-30T02:22:57.005Z,94.86
2023-07-30T02:25:33.711Z,94.82
2023-07-30T02:28:26.298Z,94.92
2023-07-30T02:31:19.182Z,94.97
2023-07-30T02:34:13.554Z,94.73
2023-07-30T02:37:00.651Z,94.72
2023-07-30T02:40:07.016Z,94.89
2023-07-30T02:42:59.959Z,94.76
2023-07-30T02:45:53.530Z,94.79
2023-07-30T02:48:38.717Z,94.76
2023-07-30T02:51:32.527Z,95.07
2023-07-30T02:54:25.642Z,94.96
2023-07-30T02:57:19.349Z,95.19
2023-07-30T03:00:14.674Z,95.59
2023-07-30T03:03:00.686Z,95.50
2023-07-30T03:05:53.611Z,95.56
2023-07-30T03:08:48.760Z,95.58
2023-07-30T03:11:34.035Z,95.56
2023-07-30T03:14:26.949Z,95.58
2023-07-30T03:17:13.309Z,95.27
2023-07-30T03:20:07.191Z,95.20
2023-07-30T03:22:52.608Z,95.34
2023-07-30T03:25:25.241Z,95.39
2023-07-30T03:28:11.718Z,95.51
2023-07-30T03:31:04.538Z,95.95
2023-07-30T03:33:57.453Z,95.87
2023-07-30T03:36:49.276Z,95.96
2023-07-30T03:39:41.013Z,95.69
2023-07-30T03:42:35.126Z,95.50
2023-07-30T03:45:27.872Z,95.57
2023-07-30T03:48:22.280Z,95.69
2023-07-30T03:51:15.223Z,95.90
2023-07-30T03:54:08.584Z,95.93
2023-07-30T03:57:01.749Z,95.97
2023-07-30T04:00:00.151Z,95.66
2023-07-30T04:02:53.028Z,95.08
2023-07-30T04:05:47.051Z,94.84
2023-07-30T04:08:39.951Z,94.51
2023-07-30T04:11:32.678Z,94.09
2023-07-30T04:14:22.235Z,93.52
2023-07-30T04:17:10.096Z,93.15
2023-07-30T04:20:03.570Z,92.53
2023-07-30T04:22:57.046Z,92.11
2023-07-30T04:25:40.866Z,90.93
2023-07-30T04:28:21.289Z,90.35
2023-07-30T04:30:57.466Z,89.68
2023-07-30T04:33:39.361Z,89.00
2023-07-30T04:36:32.853Z,87.53
2023-07-30T04:39:08.528Z,86.62
2023-07-30T04:41:54.009Z,85.39
2023-07-30T04:44:46.591Z,84.51
2023-07-30T04:47:39.896Z,84.17
2023-07-30T04:50:32.699Z,83.80
2023-07-30T04:53:11.439Z,82.43
2023-07-30T04:56:14.407Z,81.68
2023-07-30T04:59:07.348Z,80.21
2023-07-30T05:01:55.317Z,79.20
2023-07-30T05:04:39.548Z,77.01
2023-07-30T05:07:16.755Z,76.08
2023-07-30T05:10:12.393Z,72.87
2023-07-30T05:12:55.949Z,72.50
2023-07-30T05:15:48.919Z,72.06
2023-07-30T05:18:36.216Z,70.88
2023-07-30T05:21:28.891Z,70.45
2023-07-30T05:24:23.682Z,68.90
2023-07-30T05:27:16.855Z,68.21
2023-07-30T05:30:14.479Z,66.01
2023-07-30T05:33:07.144Z,66.24
2023-07-30T05:36:12.664Z,66.94
2023-07-30T05:39:03.781Z,66.65
2023-07-30T05:41:56.859Z,66.77
2023-07-30T05:44:49.979Z,65.68
2023-07-30T05:47:30.536Z,65.40
2023-07-30T05:50:23.461Z,66.40
2023-07-30T05:53:19.338Z,67.23
2023-07-30T05:56:19.731Z,67.44
2023-07-30T05:59:12.615Z,67.25
2023-07-30T06:02:07.814Z,67.17
2023-07-30T06:04:52.605Z,67.58
2023-07-30T06:07:45.499Z,68.00
2023-07-30T06:10:41.780Z,67.28
2023-07-30T06:13:25.958Z,67.33
2023-07-30T06:16:20.632Z,67.34
2023-07-30T06:19:13.895Z,67.39
2023-07-30T06:21:56.260Z,66.06
2023-07-30T06:24:48.220Z,65.95
2023-07-30T06:27:33.965Z,64.72
2023-07-30T06:30:27.048Z,65.49
2023-07-30T06:33:19.391Z,65.97
2023-07-30T06:36:06.301Z,66.29
2023-07-30T06:38:51.820Z,66.35
2023-07-30T06:41:44.931Z,65.45
2023-07-30T06:44:39.261Z,64.57
2023-07-30T06:47:34.285Z,65.24
2023-07-30T06:50:29.083Z,65.70
2023-07-30T06:53:23.265Z,64.88
2023-07-30T06:56:16.093Z,64.50
2023-07-30T06:59:08.928Z,64.38
2023-07-30T07:02:03.905Z,64.51
2023-07-30T07:04:58.235Z,64.76
2023-07-30T07:07:51.327Z,64.54
2023-07-30T07:10:46.283Z,64.34
2023-07-30T07:13:41.656Z,64.78
2023-07-30T07:16:28.956Z,64.95
2023-07-30T07:19:22.664Z,63.51
2023-07-30T07:22:16.402Z,63.70
2023-07-30T07:25:10.252Z,63.33
2023-07-30T07:27:55.884Z,63.34
2023-07-30T07:30:41.515Z,61.42
2023-07-30T07:33:33.964Z,61.48
2023-07-30T07:36:17.185Z,62.09
2023-07-30T07:39:10.030Z,60.98
2023-07-30T07:42:03.423Z,60.04
2023-07-30T07:44:56.070Z,59.72
2023-07-30T07:47:48.712Z,60.62
2023-07-30T07:50:34.253Z,60.55
2023-07-30T07:53:27.721Z,58.90
2023-07-30T07:56:10.285Z,58.69
2023-07-30T07:59:03.131Z,58.66
2023-07-30T08:01:56.133Z,58.16
2023-07-30T08:04:48.923Z,58.22
2023-07-30T08:07:41.812Z,57.35
2023-07-30T08:10:19.445Z,58.40
2023-07-30T08:13:13.350Z,57.83
2023-07-30T08:16:06.518Z,57.55
2023-07-30T08:18:59.196Z,57.42
2023-07-30T08:21:53.084Z,56.45
2023-07-30T08:24:45.727Z,56.25
2023-07-30T08:27:38.944Z,56.75
2023-07-30T08:30:31.936Z,56.20
2023-07-30T08:33:26.501Z,56.22
2023-07-30T08:36:18.178Z,55.08
2023-07-30T08:39:11.221Z,53.87
2023-07-30T08:42:04.767Z,54.31
2023-07-30T08:44:47.598Z,54.64
2023-07-30T08:47:41.879Z,53.21
2023-07-30T08:50:27.933Z,52.79
2023-07-30T08:53:21.120Z,52.69
2023-07-30T08:56:15.595Z,53.58
2023-07-30T08:59:01.132Z,52.20
2023-07-30T09:01:56.954Z,50.98
2023-07-30T09:04:53.447Z,50.50
2023-07-30T09:07:48.175Z,50.58
2023-07-30T09:10:41.170Z,50.36
2023-07-30T09:13:41.182Z,49.26
2023-07-30T09:16:28.842Z,49.75
2023-07-30T09:19:21.727Z,48.25
2023-07-30T09:22:14.484Z,48.51
2023-07-30T09:25:08.733Z,48.18
2023-07-30T09:28:01.535Z,47.80
2023-07-30T09:30:51.985Z,48.08
2023-07-30T09:33:45.731Z,47.23
2023-07-30T09:36:38.969Z,48.06
2023-07-30T09:39:31.877Z,47.06
2023-07-30T09:42:30.569Z,47.57
2023-07-30T09:45:26.270Z,46.65
2023-07-30T09:48:19.379Z,47.60
2023-07-30T09:51:07.111Z,46.88
2023-07-30T09:53:44.455Z,47.63
2023-07-30T09:56:35.985Z,47.75
2023-07-30T09:59:21.783Z,46.73
2023-07-30T10:02:16.439Z,45.54
2023-07-30T10:05:13.886Z,45.69
2023-07-30T10:08:00.469Z,46.15
2023-07-30T10:10:54.584Z,46.53
2023-07-30T10:13:47.954Z,46.97
2023-07-30T10:16:27.506Z,47.15
2023-07-30T10:19:24.207Z,47.32
2023-07-30T10:22:31.362Z,46.86
2023-07-30T10:25:30.795Z,46.28
2023-07-30T10:28:33.942Z,44.78
2023-07-30T10:31:42.709Z,44.31
2023-07-30T10:34:48.593Z,45.07
2023-07-30T10:37:25.357Z,44.74
2023-07-30T10:40:21.583Z,45.03
2023-07-30T10:43:21.846Z,46.08
2023-07-30T10:46:16.571Z,44.42
2023-07-30T10:49:07.536Z,43.56
2023-07-30T10:52:01.693Z,43.19
2023-07-30T10:55:03.805Z,43.68
2023-07-30T10:57:57.367Z,43.91
2023-07-30T11:00:50.963Z,43.75
2023-07-30T11:03:29.775Z,44.07
2023-07-30T11:06:15.915Z,43.26
2023-07-30T11:09:20.657Z,43.25
2023-07-30T11:12:00.554Z,41.82
2023-07-30T11:14:35.866Z,42.29
2023-07-30T11:17:22.542Z,40.88
2023-07-30T11:19:59.961Z,41.48
2023-07-30T11:22:52.909Z,42.24
2023-07-30T11:25:50.783Z,41.33
2023-07-30T11:28:44.626Z,41.66
2023-07-30T11:31:37.916Z,41.22
2023-07-30T11:34:34.302Z,41.70
2023-07-30T11:37:16.306Z,42.07
2023-07-30T11:39:53.864Z,41.37
2023-07-30T11:42:43.806Z,42.08
2023-07-30T11:45:29.868Z,39.85
2023-07-30T11:48:14.241Z,40.70
2023-07-30T11:51:00.941Z,41.30
2023-07-30T11:53:57.414Z,41.73
2023-07-30T11:56:48.713Z,41.25
2023-07-30T11:59:43.563Z,41.71
2023-07-30T12:02:23.423Z,41.67
2023-07-30T12:05:12.227Z,41.31
2023-07-30T12:07:59.427Z,40.08
2023-07-30T12:10:42.953Z,40.17
2023-07-30T12:13:39.225Z,39.77
2023-07-30T12:16:31.991Z,39.89
2023-07-30T12:19:25.944Z,39.97
2023-07-30T12:22:09.764Z,40.28
2023-07-30T12:24:52.419Z,41.41
2023-07-30T12:27:45.383Z,40.59
2023-07-30T12:30:38.081Z,41.28
2023-07-30T12:33:31.208Z,41.04
2023-07-30T12:36:24.373Z,40.73
2023-07-30T12:39:17.364Z,41.61
2023-07-30T12:42:00.313Z,40.27
2023-07-30T12:44:49.223Z,38.74
2023-07-30T12:47:42.402Z,38.74
2023-07-30T12:50:27.854Z,39.21
2023-07-30T12:53:20.562Z,39.53
2023-07-30T12:56:13.644Z,39.99
2023-07-30T12:59:06.237Z,40.96
2023-07-30T13:01:50.316Z,40.26
2023-07-30T13:04:42.940Z,39.83
2023-07-30T13:07:36.247Z,39.65
2023-07-30T13:10:29.477Z,39.97
2023-07-30T13:13:10.261Z,39.70
2023-07-30T13:15:48.425Z,39.56
2023-07-30T13:18:33.264Z,40.78
2023-07-30T13:21:26.426Z,40.71
2023-07-30T13:24:19.246Z,40.08
2023-07-30T13:27:11.966Z,40.14
2023-07-30T13:29:54.753Z,40.19
2023-07-30T13:32:46.800Z,40.30
2023-07-30T13:35:40.034Z,39.74
2023-07-30T13:38:33.120Z,39.93
2023-07-30T13:41:19.347Z,40.25
2023-07-30T13:44:12.292Z,41.14
2023-07-30T13:46:52.795Z,40.52
2023-07-30T13:49:48.826Z,40.01
2023-07-30T13:52:41.568Z,40.07
2023-07-30T13:55:34.028Z,40.97
2023-07-30T13:58:09.509Z,40.52
2023-07-30T14:00:55.819Z,40.53
2023-07-30T14:03:47.217Z,40.99
2023-07-30T14:06:20.045Z,41.86
2023-07-30T14:09:04.586Z,42.58
2023-07-30T14:11:46.828Z,42.53
2023-07-30T14:14:29.002Z,42.41
2023-07-30T14:17:17.039Z,42.52
2023-07-30T14:20:11.231Z,43.22
2023-07-30T14:23:05.764Z,42.92
2023-07-30T14:25:53.270Z,43.49
2023-07-30T14:28:28.832Z,44.56
2023-07-30T14:31:01.983Z,44.88
2023-07-30T14:33:43.072Z,45.23
2023-07-30T14:36:29.313Z,45.25
2023-07-30T14:39:05.164Z,45.31
2023-07-30T14:41:41.801Z,45.46
2023-07-30T14:44:34.780Z,45.89
2023-07-30T14:47:28.504Z,46.97
2023-07-30T14:50:21.263Z,47.25
2023-07-30T14:53:14.406Z,47.46
2023-07-30T14:55:55.922Z,47.63
2023-07-30T14:58:48.818Z,47.73
2023-07-30T15:01:29.966Z,48.24
2023-07-30T15:04:12.367Z,48.25
2023-07-30T15:07:09.989Z,48.47
2023-07-30T15:09:57.372Z,49.00
2023-07-30T15:12:31.526Z,49.00
2023-07-30T15:15:05.696Z,49.02
2023-07-30T15:17:50.918Z,49.24
2023-07-30T15:20:44.130Z,50.04
2023-07-30T15:23:22.123Z,50.27
2023-07-30T15:26:16.917Z,49.88
2023-07-30T15:28:49.537Z,49.94
2023-07-30T15:31:35.816Z,50.03
2023-07-30T15:34:18.890Z,49.66
2023-07-30T15:36:57.958Z,49.56
2023-07-30T15:39:50.700Z,49.20
2023-07-30T15:42:26.193Z,49.32
2023-07-30T15:45:13.138Z,49.51
2023-07-30T15:48:06.113Z,49.26
2023-07-30T15:50:59.164Z,49.62
2023-07-30T15:53:44.721Z,50.10
2023-07-30T15:56:32.460Z,50.10
2023-07-30T15:59:10.133Z,50.45
2023-07-30T16:02:02.269Z,50.70
2023-07-30T16:04:55.344Z,51.15
2023-07-30T16:07:37.734Z,51.35
2023-07-30T16:10:23.231Z,51.77
2023-07-30T16:12:59.730Z,51.96
2023-07-30T16:15:46.448Z,52.10
2023-07-30T16:18:37.881Z,53.11
2023-07-30T16:21:31.051Z,53.42
2023-07-30T16:24:07.613Z,53.84
2023-07-30T16:26:47.686Z,54.19
2023-07-30T16:29:41.216Z,54.51
2023-07-30T16:32:17.109Z,54.93
2023-07-30T16:35:11.484Z,55.24
2023-07-30T16:38:04.986Z,55.22
2023-07-30T16:40:57.815Z,55.60
2023-07-30T16:43:50.574Z,55.79
2023-07-30T16:46:26.498Z,55.93
2023-07-30T16:49:12.872Z,56.16
2023-07-30T16:51:58.525Z,56.33
2023-07-30T16:54:44.992Z,56.36
2023-07-30T16:57:21.882Z,56.57
2023-07-30T16:59:57.414Z,56.47
2023-07-30T17:02:33.684Z,56.72
2023-07-30T17:05:12.082Z,57.13
2023-07-30T17:08:09.773Z,57.34
2023-07-30T17:10:56.053Z,57.73
2023-07-30T17:13:49.414Z,58.13
2023-07-30T17:16:24.814Z,58.33
2023-07-30T17:19:20.689Z,58.54
2023-07-30T17:22:13.549Z,58.75
2023-07-30T17:24:58.779Z,59.13
2023-07-30T17:27:41.335Z,59.55
2023-07-30T17:30:36.028Z,60.10
2023-07-30T17:33:09.841Z,60.39
2023-07-30T17:36:09.448Z,60.81
2023-07-30T17:39:02.390Z,61.11
2023-07-30T17:41:55.787Z,61.17
2023-07-30T17:44:45.805Z,61.64
2023-07-30T17:47:38.931Z,62.18
2023-07-30T17:50:36.978Z,62.47
2023-07-30T17:53:12.139Z,62.95
2023-07-30T17:56:01.502Z,63.32
2023-07-30T17:58:46.928Z,63.80
2023-07-30T18:01:31.435Z,63.97
2023-07-30T18:04:24.302Z,64.34
2023-07-30T18:07:11.414Z,64.99
2023-07-30T18:09:54.360Z,65.12
2023-07-30T18:12:41.126Z,65.48
2023-07-30T18:15:24.980Z,65.90
2023-07-30T18:18:21.217Z,66.34
2023-07-30T18:21:14.151Z,66.68
2023-07-30T18:24:08.875Z,66.83
2023-07-30T18:26:52.802Z,66.96
2023-07-30T18:29:28.545Z,67.21
2023-07-30T18:32:22.732Z,67.36
2023-07-30T18:35:06.210Z,67.60
2023-07-30T18:37:41.827Z,67.74
2023-07-30T18:40:36.511Z,68.18
2023-07-30T18:43:18.959Z,68.20
2023-07-30T18:46:11.961Z,68.71
2023-07-30T18:48:44.938Z,69.04
2023-07-30T18:51:37.703Z,69.35
2023-07-30T18:54:15.943Z,69.86
2023-07-30T18:56:48.799Z,70.20
2023-07-30T18:59:24.528Z,70.28
2023-07-30T19:02:11.768Z,70.68
2023-07-30T19:04:57.564Z,70.98
2023-07-30T19:07:30.329Z,71.33
2023-07-30T19:10:23.954Z,71.29
2023-07-30T19:13:16.900Z,71.83
2023-07-30T19:15:50.030Z,71.73
2023-07-30T19:18:43.333Z,71.91
2023-07-30T19:21:36.263Z,72.58
2023-07-30T19:24:22.386Z,72.68
2023-07-30T19:27:15.107Z,72.95
2023-07-30T19:30:00.714Z,73.02
2023-07-30T19:32:36.436Z,73.14
2023-07-30T19:35:12.239Z,73.44
2023-07-30T19:37:57.771Z,73.66
2023-07-30T19:40:55.379Z,73.74
2023-07-30T19:43:51.161Z,74.06
2023-07-30T19:46:43.781Z,74.28
2023-07-30T19:49:28.283Z,74.40
2023-07-30T19:52:01.676Z,74.82
2023-07-30T19:54:34.387Z,75.10
2023-07-30T19:57:20.829Z,75.11
2023-07-30T20:00:15.913Z,75.45
2023-07-30T20:03:10.479Z,75.39
2023-07-30T20:06:05.592Z,75.46
2023-07-30T20:08:58.481Z,75.86
2023-07-30T20:11:52.685Z,75.76
2023-07-30T20:14:46.113Z,75.86
2023-07-30T20:17:29.034Z,76.17
2023-07-30T20:20:13.038Z,76.11
2023-07-30T20:22:53.119Z,76.55
2023-07-30T20:25:29.078Z,76.57
2023-07-30T20:28:01.671Z,76.57
2023-07-30T20:30:46.950Z,76.62
2023-07-30T20:33:41.419Z,76.97
2023-07-30T20:36:25.222Z,77.02
2023-07-30T20:39:19.200Z,77.14
2023-07-30T20:42:12.494Z,76.98
2023-07-30T20:45:08.669Z,77.39
2023-07-30T20:48:01.708Z,77.28
2023-07-30T20:50:57.448Z,77.75
2023-07-30T20:53:50.502Z,77.60
2023-07-30T20:56:34.461Z,77.79
2023-07-30T20:59:11.434Z,77.99
2023-07-30T21:01:47.453Z,77.94
2023-07-30T21:04:34.054Z,77.91
2023-07-30T21:07:19.892Z,78.16
2023-07-30T21:10:06.629Z,78.22
2023-07-30T21:13:00.293Z,78.38
2023-07-30T21:15:52.519Z,78.52
2023-07-30T21:18:37.856Z,78.73
2023-07-30T21:21:20.673Z,78.66
2023-07-30T21:24:13.532Z,78.97
2023-07-30T21:27:07.229Z,78.90
2023-07-30T21:30:09.198Z,78.96
2023-07-30T21:33:02.202Z,79.18
2023-07-30T21:35:44.895Z,78.96
2023-07-30T21:38:37.276Z,79.30
2023-07-30T21:41:30.006Z,79.55
2023-07-30T21:44:22.993Z,79.48
2023-07-30T21:46:59.219Z,79.51
2023-07-30T21:49:45.604Z,79.88
2023-07-30T21:52:38.723Z,80.05
2023-07-30T21:55:31.895Z,79.94
2023-07-30T21:58:24.751Z,80.29
2023-07-30T22:01:17.760Z,80.34
2023-07-30T22:04:04.182Z,80.30
2023-07-30T22:06:57.381Z,80.43
2023-07-30T22:09:49.747Z,80.31
2023-07-30T22:12:35.888Z,80.38
2023-07-30T22:15:29.611Z,80.58
2023-07-30T22:18:12.319Z,80.92
2023-07-30T22:20:54.102Z,80.79
2023-07-30T22:23:47.981Z,80.68
2023-07-30T22:26:41.060Z,80.86
2023-07-30T22:29:16.944Z,81.09
2023-07-30T22:32:02.141Z,81.66
2023-07-30T22:34:54.853Z,81.39
2023-07-30T22:37:47.928Z,81.82
2023-07-30T22:40:41.483Z,81.62
2023-07-30T22:43:13.915Z,82.06
2023-07-30T22:46:07.122Z,82.03
2023-07-30T22:49:00.430Z,82.32
2023-07-30T22:51:53.013Z,82.15
2023-07-30T22:54:45.987Z,82.49
2023-07-30T22:57:38.908Z,82.96
2023-07-30T23:00:32.094Z,83.06
2023-07-30T23:03:25.087Z,83.23
2023-07-30T23:06:17.621Z,83.18
2023-07-30T23:08:52.649Z,83.50
2023-07-30T23:11:47.502Z,83.58
2023-07-30T23:14:42.542Z,83.92
2023-07-30T23:17:15.359Z,84.25
2023-07-30T23:20:00.244Z,84.26
2023-07-30T23:22:53.347Z,84.76
2023-07-30T23:25:46.169Z,84.84
2023-07-30T23:28:30.201Z,85.45
2023-07-30T23:31:22.953Z,85.93
2023-07-30T23:34:16.628Z,85.98
2023-07-30T23:37:09.483Z,86.23
2023-07-30T23:39:54.261Z,86.38
2023-07-30T23:42:46.910Z,86.75
2023-07-30T23:45:32.779Z,86.87
2023-07-30T23:48:25.588Z,86.98
2023-07-30T23:51:18.433Z,87.32
2023-07-30T23:54:11.092Z,87.28
2023-07-30T23:57:03.923Z,87.79
2023-07-30T23:59:57.570Z,87.50
